createdAt,value
2022-10-13T00:00:36.716Z,100039.13
2022-10-13T00:03:24.053Z,100027.84
2022-10-13T00:06:12.516Z,100026.81
2022-10-13T00:09:00.689Z,100020.81
2022-10-13T00:11:48.143Z,100019.13
2022-10-13T00:14:35.373Z,100023.50
2022-10-13T00:17:24.238Z,100031.34
2022-10-13T00:20:13.556Z,100029.78
2022-10-13T00:23:00.981Z,100037.28
2022-10-13T00:25:50.921Z,100030.72
2022-10-13T00:28:39.524Z,100024.38
2022-10-13T00:31:29.453Z,100020.63
2022-10-13T00:34:18.440Z,100024.72
2022-10-13T00:37:06.867Z,100022.56
2022-10-13T00:39:54.469Z,100023.06
2022-10-13T00:42:45.038Z,100019.88
2022-10-13T00:45:32.832Z,100028.78
2022-10-13T00:48:23.639Z,100020.69
2022-10-13T00:51:16.467Z,100018.84
2022-10-13T00:54:07.537Z,100018.31
2022-10-13T00:56:55.902Z,100018.31
2022-10-13T00:59:43.877Z,100023.53
2022-10-13T01:02:35.804Z,100018.53
2022-10-13T01:05:24.557Z,100016.69
2022-10-13T01:08:17.755Z,100017.28
2022-10-13T01:11:21.240Z,100012.13
2022-10-13T01:14:19.571Z,100018.16
2022-10-13T01:17:18.417Z,99998.03
2022-10-13T01:20:36.623Z,100012.44
2022-10-13T01:24:29.338Z,100008.50
2022-10-13T01:28:06.380Z,99997.47
2022-10-13T01:31:03.146Z,100009.03
2022-10-13T01:33:58.303Z,100008.81
2022-10-13T01:36:58.031Z,100006.97
2022-10-13T01:39:59.430Z,100014.03
2022-10-13T01:42:57.964Z,100005.22
2022-10-13T01:45:52.653Z,100010.34
2022-10-13T01:48:44.751Z,100018.13
2022-10-13T01:51:33.748Z,100017.91
2022-10-13T01:54:21.360Z,100011.56
2022-10-13T01:57:34.109Z,100012.50
2022-10-13T02:00:23.680Z,100018.75
2022-10-13T02:03:21.773Z,100015.66
2022-10-13T02:06:20.957Z,100018.28
2022-10-13T02:09:16.367Z,100010.75
2022-10-13T02:12:11.286Z,100008.47
2022-10-13T02:15:00.835Z,100011.66
2022-10-13T02:17:48.173Z,100007.53
2022-10-13T02:20:36.305Z,100004.44
2022-10-13T02:23:25.832Z,99999.81
2022-10-13T02:26:14.360Z,99994.38
2022-10-13T02:29:04.048Z,99995.13
2022-10-13T02:31:52.005Z,99993.56
2022-10-13T02:34:39.615Z,100000.38
2022-10-13T02:37:27.216Z,99992.28
2022-10-13T02:40:16.161Z,99994.66
2022-10-13T02:43:03.583Z,99982.63
2022-10-13T02:45:51.528Z,99988.66
2022-10-13T02:48:39.256Z,99978.97
2022-10-13T02:51:26.566Z,99983.75
2022-10-13T02:54:13.887Z,99974.06
2022-10-13T02:57:02.525Z,99978.50
2022-10-13T02:59:50.268Z,99969.63
2022-10-13T03:02:37.795Z,99970.13
2022-10-13T03:05:25.195Z,99970.66
2022-10-13T03:08:12.605Z,99970.66
2022-10-13T03:11:00.930Z,99966.94
2022-10-13T03:13:49.512Z,99968.97
2022-10-13T03:16:37.104Z,99964.22
2022-10-13T03:19:30.729Z,99969.09
2022-10-13T03:22:18.691Z,99970.38
2022-10-13T03:25:07.749Z,99970.84
2022-10-13T03:27:56.962Z,99968.78
2022-10-13T03:30:45.612Z,99971.97
2022-10-13T03:33:33.460Z,99973.53
2022-10-13T03:36:21.199Z,99976.16
2022-10-13T03:39:10.084Z,99973.75
2022-10-13T03:41:57.361Z,99976.06
2022-10-13T03:44:44.841Z,99979.47
2022-10-13T03:47:35.990Z,99974.00
2022-10-13T03:50:23.387Z,99972.19
2022-10-13T03:53:11.553Z,99963.53
2022-10-13T03:56:00.060Z,99964.00
2022-10-13T03:58:47.418Z,99966.56
2022-10-13T04:01:35.508Z,99967.00
2022-10-13T04:04:24.448Z,99965.44
2022-10-13T04:07:16.828Z,99966.94
2022-10-13T04:10:06.843Z,99979.78
2022-10-13T04:12:57.064Z,99979.53
2022-10-13T04:15:44.614Z,99981.59
2022-10-13T04:18:32.136Z,99982.63
2022-10-13T04:21:21.690Z,99978.63
2022-10-13T04:24:10.913Z,99980.25
2022-10-13T04:26:58.153Z,99979.78
2022-10-13T04:29:45.532Z,99985.78
2022-10-13T04:32:33.034Z,99983.63
2022-10-13T04:35:23.082Z,99978.41
2022-10-13T04:38:11.734Z,99985.69
2022-10-13T04:40:59.641Z,99980.94
2022-10-13T04:43:50.194Z,99991.63
2022-10-13T04:46:37.797Z,99988.22
2022-10-13T04:49:25.896Z,99979.38
2022-10-13T04:52:13.490Z,99975.72
2022-10-13T04:55:02.289Z,99975.72
2022-10-13T04:57:49.892Z,99974.91
2022-10-13T05:00:37.175Z,99977.53
2022-10-13T05:03:24.882Z,99981.75
2022-10-13T05:06:17.191Z,99981.97
2022-10-13T05:09:07.710Z,99968.34
2022-10-13T05:11:57.340Z,99981.88
2022-10-13T05:14:44.808Z,99978.72
2022-10-13T05:17:35.310Z,99976.31
2022-10-13T05:20:28.534Z,99969.25
2022-10-13T05:23:16.651Z,99962.75
2022-10-13T05:26:06.139Z,99954.16
2022-10-13T05:28:54.950Z,99946.31
2022-10-13T05:31:42.499Z,99952.56
2022-10-13T05:34:29.915Z,99938.94
2022-10-13T05:37:18.414Z,99942.13
2022-10-13T05:40:07.245Z,99931.66
2022-10-13T05:42:55.256Z,99940.28
2022-10-13T05:45:44.077Z,99938.47
2022-10-13T05:48:31.860Z,99931.66
2022-10-13T05:51:24.135Z,99928.00
2022-10-13T05:54:18.564Z,99930.06
2022-10-13T05:57:18.648Z,99932.91
2022-10-13T06:00:11.038Z,99920.53
2022-10-13T06:03:09.654Z,99915.31
2022-10-13T06:05:40.733Z,99905.66
2022-10-13T06:08:10.723Z,99911.03
2022-10-13T06:10:39.852Z,99908.88
2022-10-13T06:13:08.927Z,99903.66
2022-10-13T06:15:37.921Z,99911.50
2022-10-13T06:18:11.441Z,99908.41
2022-10-13T06:20:40.581Z,99907.38
2022-10-13T06:23:09.607Z,99891.00
2022-10-13T06:25:38.781Z,99901.22
2022-10-13T06:28:07.821Z,99900.75
2022-10-13T06:30:36.793Z,99906.28
2022-10-13T06:33:05.893Z,99909.25
2022-10-13T06:35:37.241Z,99918.66
2022-10-13T06:38:06.260Z,99917.63
2022-10-13T06:40:35.387Z,99913.19
2022-10-13T06:43:04.920Z,99912.97
2022-10-13T06:45:47.334Z,99913.78
2022-10-13T06:48:18.139Z,99909.31
2022-10-13T06:50:56.691Z,99927.84
2022-10-13T06:53:27.593Z,99909.25
2022-10-13T06:55:58.839Z,99914.25
2022-10-13T06:58:28.564Z,99911.88
2022-10-13T07:01:00.447Z,99920.25
2022-10-13T07:03:29.656Z,99929.19
2022-10-13T07:06:03.863Z,99927.38
2022-10-13T07:08:33.408Z,99925.00
2022-10-13T07:11:15.211Z,99921.34
2022-10-13T07:13:46.879Z,99927.63
2022-10-13T07:16:17.711Z,99928.66
2022-10-13T07:18:49.344Z,99927.06
2022-10-13T07:21:20.116Z,99923.66
2022-10-13T07:23:49.247Z,99915.81
2022-10-13T07:26:18.511Z,99913.44
2022-10-13T07:28:47.653Z,99917.84
2022-10-13T07:31:21.184Z,99923.66
2022-10-13T07:33:51.716Z,99914.53
2022-10-13T07:36:22.184Z,99914.09
2022-10-13T07:38:53.463Z,99920.88
2022-10-13T07:41:22.524Z,99921.91
2022-10-13T07:43:56.654Z,99915.91
2022-10-13T07:46:26.480Z,99909.19
2022-10-13T07:48:56.270Z,99910.84
2022-10-13T07:51:26.678Z,99926.63
2022-10-13T07:53:56.167Z,99913.84
2022-10-13T07:56:25.158Z,99922.84
2022-10-13T07:58:54.245Z,99911.13
2022-10-13T08:01:23.329Z,99910.44
2022-10-13T08:03:56.047Z,99911.78
2022-10-13T08:06:26.416Z,99897.19
2022-10-13T08:08:58.078Z,99898.28
2022-10-13T08:11:28.105Z,99891.94
2022-10-13T08:14:00.959Z,99880.06
2022-10-13T08:16:30.680Z,99884.56
2022-10-13T08:19:00.109Z,99895.44
2022-10-13T08:22:00.758Z,99889.25
2022-10-13T08:24:22.542Z,99896.22
2022-10-13T08:26:52.320Z,99892.00
2022-10-13T08:29:23.391Z,99887.75
2022-10-13T08:31:53.865Z,99893.13
2022-10-13T08:34:23.744Z,99898.97
2022-10-13T08:36:56.684Z,99898.63
2022-10-13T08:39:26.671Z,99904.22
2022-10-13T08:41:57.822Z,99904.03
2022-10-13T08:45:10.818Z,99905.69
2022-10-13T08:47:38.513Z,99913.06
2022-10-13T08:50:16.525Z,99899.72
2022-10-13T08:52:51.771Z,99897.88
2022-10-13T08:55:33.309Z,99905.47
2022-10-13T08:58:07.233Z,99906.84
2022-10-13T09:00:38.373Z,99903.72
2022-10-13T09:03:24.630Z,99905.59
2022-10-13T09:06:07.944Z,99906.94
2022-10-13T09:08:45.087Z,99907.50
2022-10-13T09:11:14.772Z,99907.81
2022-10-13T09:13:45.029Z,99908.59
2022-10-13T09:16:14.101Z,99913.34
2022-10-13T09:18:43.195Z,99919.13
2022-10-13T09:21:24.642Z,99913.41
2022-10-13T09:24:07.416Z,99909.75
2022-10-13T09:26:39.971Z,99913.69
2022-10-13T09:29:18.104Z,99915.28
2022-10-13T09:31:47.407Z,99910.81
2022-10-13T09:34:25.107Z,99915.59
2022-10-13T09:37:03.157Z,99904.28
2022-10-13T09:39:34.893Z,99904.59
2022-10-13T09:42:26.743Z,99910.66
2022-10-13T09:45:02.453Z,99901.75
2022-10-13T09:47:33.524Z,99904.88
2022-10-13T09:50:16.852Z,99906.25
2022-10-13T09:52:47.988Z,99898.16
2022-10-13T09:55:34.385Z,99893.66
2022-10-13T09:58:08.695Z,99903.13
2022-10-13T10:01:10.333Z,99901.28
2022-10-13T10:03:40.583Z,99894.22
2022-10-13T10:06:17.633Z,99893.75
2022-10-13T10:09:05.057Z,99896.63
2022-10-13T10:13:15.043Z,99899.75
2022-10-13T10:21:26.055Z,99892.09
2022-10-13T10:38:11.601Z,99895.69
2022-10-13T11:23:21.555Z,99827.69
2022-10-13T11:30:25.640Z,99802.59
2022-10-13T12:20:57.131Z,99751.03
2022-10-13T12:24:28.763Z,99739.00
2022-10-13T12:27:26.796Z,99730.94
2022-10-13T12:29:56.455Z,99729.91
2022-10-13T12:32:29.506Z,99731.00
2022-10-13T12:35:17.067Z,99733.91
2022-10-13T12:37:47.048Z,99727.84
2022-10-13T12:40:18.627Z,99727.59
2022-10-13T12:42:49.748Z,99727.09
2022-10-13T12:45:21.776Z,99726.03
2022-10-13T12:47:54.809Z,99720.81
2022-10-13T12:50:37.059Z,99726.59
2022-10-13T12:53:20.523Z,99728.16
2022-10-13T12:56:00.598Z,99726.84
2022-10-13T12:58:32.419Z,99735.50
2022-10-13T13:01:30.281Z,99731.56
2022-10-13T13:04:02.511Z,99735.50
2022-10-13T13:06:36.427Z,99722.38
2022-10-13T13:09:28.641Z,99724.50
2022-10-13T13:12:24.393Z,99729.19
2022-10-13T13:14:55.289Z,99722.38
2022-10-13T13:20:27.960Z,99715.00
2022-10-13T13:22:58.708Z,99717.63
2022-10-13T13:25:28.123Z,99723.41
2022-10-13T13:27:57.175Z,99717.63
2022-10-13T13:30:27.297Z,99729.50
2022-10-13T13:32:56.351Z,99727.63
2022-10-13T13:35:25.430Z,99718.19
2022-10-13T13:37:54.832Z,99716.09
2022-10-13T13:40:28.703Z,99718.75
2022-10-13T13:42:57.906Z,99722.69
2022-10-13T13:45:34.899Z,99723.44
2022-10-13T13:48:04.526Z,99714.53
2022-10-13T13:50:36.514Z,99712.16
2022-10-13T13:53:06.633Z,99706.66
2022-10-13T13:55:37.973Z,99704.81
2022-10-13T13:58:07.726Z,99688.53
2022-10-13T14:00:36.797Z,99677.75
2022-10-13T14:03:06.091Z,99658.56
2022-10-13T14:05:35.249Z,99671.97
2022-10-13T14:08:04.278Z,99677.75
2022-10-13T14:10:33.505Z,99687.75
2022-10-13T14:13:03.935Z,99684.56
2022-10-13T14:15:33.040Z,99673.03
2022-10-13T14:18:02.062Z,99674.09
2022-10-13T14:20:31.163Z,99669.88
2022-10-13T14:23:00.177Z,99675.41
2022-10-13T14:25:29.207Z,99671.72
2022-10-13T14:27:58.376Z,99674.88
2022-10-13T14:30:28.869Z,99672.25
2022-10-13T14:32:57.911Z,99677.25
2022-10-13T14:35:28.023Z,99690.91
2022-10-13T14:37:57.050Z,99689.34
2022-10-13T14:40:26.168Z,99683.00
2022-10-13T14:42:55.170Z,99680.94
2022-10-13T14:45:24.198Z,99665.16
2022-10-13T14:47:55.086Z,99653.84
2022-10-13T14:50:24.198Z,99673.53
2022-10-13T14:52:57.589Z,99676.19
2022-10-13T14:55:27.422Z,99679.88
2022-10-13T14:57:56.540Z,99680.13
2022-10-13T15:00:25.605Z,99690.09
2022-10-13T15:02:55.990Z,99677.75
2022-10-13T15:05:27.823Z,99684.06
2022-10-13T15:07:56.849Z,99684.59
2022-10-13T15:10:25.993Z,99689.03
2022-10-13T15:12:55.053Z,99683.28
2022-10-13T15:15:24.572Z,99689.06
2022-10-13T15:17:57.629Z,99691.69
2022-10-13T15:20:26.686Z,99685.88
2022-10-13T15:22:55.709Z,99687.50
2022-10-13T15:25:24.780Z,99685.63
2022-10-13T15:27:53.851Z,99679.06
2022-10-13T15:30:23.233Z,99668.81
2022-10-13T15:32:52.639Z,99680.38
2022-10-13T15:35:23.101Z,99682.50
2022-10-13T15:37:52.118Z,99681.97
2022-10-13T15:40:21.413Z,99672.25
2022-10-13T15:42:50.457Z,99661.75
2022-10-13T15:45:19.532Z,99665.41
2022-10-13T15:47:48.786Z,99670.41
2022-10-13T15:50:18.293Z,99657.78
2022-10-13T15:52:48.731Z,99660.41
2022-10-13T15:55:18.003Z,99668.06
2022-10-13T15:57:47.253Z,99663.88
2022-10-13T16:00:17.760Z,99670.69
2022-10-13T16:02:50.995Z,99664.38
2022-10-13T16:05:20.745Z,99661.25
2022-10-13T16:07:51.224Z,99670.16
2022-10-13T16:10:20.657Z,99661.72
2022-10-13T16:12:49.969Z,99663.81
2022-10-13T16:15:20.130Z,99663.06
2022-10-13T16:17:49.137Z,99663.56
2022-10-13T16:20:18.344Z,99669.34
2022-10-13T16:22:47.352Z,99666.72
2022-10-13T16:25:18.366Z,99671.44
2022-10-13T16:27:47.401Z,99667.25
2022-10-13T16:30:16.457Z,99668.31
2022-10-13T16:32:45.493Z,99666.72
2022-10-13T16:35:14.953Z,99673.81
2022-10-13T16:37:43.983Z,99672.50
2022-10-13T16:40:13.184Z,99673.03
2022-10-13T16:42:44.961Z,99666.19
2022-10-13T16:45:14.272Z,99664.34
2022-10-13T16:47:43.282Z,99654.91
2022-10-13T16:50:12.471Z,99655.66
2022-10-13T16:52:42.351Z,99665.66
2022-10-13T16:55:11.805Z,99674.88
2022-10-13T16:57:40.823Z,99681.69
2022-10-13T17:00:13.817Z,99690.09
2022-10-13T17:02:42.814Z,99690.13
2022-10-13T17:05:11.785Z,99684.56
2022-10-13T17:07:40.803Z,99677.75
2022-10-13T17:10:11.235Z,99676.69
2022-10-13T17:12:40.246Z,99669.34
2022-10-13T17:15:11.671Z,99663.84
2022-10-13T17:17:41.930Z,99667.78
2022-10-13T17:20:13.246Z,99674.59
2022-10-13T17:22:42.761Z,99673.53
2022-10-13T17:25:13.473Z,99683.03
2022-10-13T17:27:42.545Z,99678.53
2022-10-13T17:30:15.460Z,99683.78
2022-10-13T17:32:44.524Z,99681.44
2022-10-13T17:35:17.919Z,99673.78
2022-10-13T17:37:46.948Z,99673.03
2022-10-13T17:40:16.502Z,99673.78
2022-10-13T17:42:45.588Z,99675.91
2022-10-13T17:45:16.112Z,99671.44
2022-10-13T17:47:49.696Z,99675.13
2022-10-13T17:50:19.637Z,99672.50
2022-10-13T17:52:48.653Z,99676.69
2022-10-13T17:55:17.750Z,99673.28
2022-10-13T17:57:46.824Z,99683.00
2022-10-13T18:00:18.432Z,99681.44
2022-10-13T18:02:48.098Z,99676.19
2022-10-13T18:05:17.747Z,99682.50
2022-10-13T18:07:46.772Z,99676.44
2022-10-13T18:10:17.661Z,99679.06
2022-10-13T18:12:46.774Z,99682.75
2022-10-13T18:15:17.695Z,99675.91
2022-10-13T18:17:46.768Z,99678.78
2022-10-13T18:20:15.974Z,99678.78
2022-10-13T18:22:45.012Z,99669.34
2022-10-13T18:25:14.115Z,99679.03
2022-10-13T18:27:43.247Z,99676.41
2022-10-13T18:30:16.576Z,99683.00
2022-10-13T18:32:50.433Z,99677.75
2022-10-13T18:35:19.534Z,99683.00
2022-10-13T18:37:52.257Z,99678.53
2022-10-13T18:40:22.352Z,99669.06
2022-10-13T18:42:54.683Z,99670.91
2022-10-13T18:45:24.300Z,99669.34
2022-10-13T18:47:54.727Z,99673.03
2022-10-13T18:50:23.723Z,99675.09
2022-10-13T18:52:52.743Z,99671.16
2022-10-13T18:55:21.791Z,99673.25
2022-10-13T18:57:50.826Z,99669.31
2022-10-13T19:00:19.966Z,99676.44
2022-10-13T19:02:49.069Z,99677.47
2022-10-13T19:05:19.576Z,99678.25
2022-10-13T19:07:48.576Z,99675.09
2022-10-13T19:10:17.618Z,99675.09
2022-10-13T19:12:46.821Z,99678.25
2022-10-13T19:15:16.007Z,99677.47
2022-10-13T19:17:45.422Z,99677.47
2022-10-13T19:20:14.408Z,99673.53
2022-10-13T19:22:44.799Z,99683.47
2022-10-13T19:25:17.461Z,99681.13
2022-10-13T19:27:46.872Z,99670.88
2022-10-13T19:30:16.021Z,99669.31
2022-10-13T19:32:45.145Z,99672.47
2022-10-13T19:35:15.626Z,99687.16
2022-10-13T19:37:46.208Z,99687.16
2022-10-13T19:40:15.521Z,99675.88
2022-10-13T19:42:44.573Z,99690.59
2022-10-13T19:45:13.727Z,99695.84
2022-10-13T19:47:42.788Z,99698.72
2022-10-13T19:50:11.953Z,99705.56
2022-10-13T19:52:41.525Z,99702.38
2022-10-13T19:55:11.973Z,99707.66
2022-10-13T19:57:40.984Z,99696.59
2022-10-13T20:00:11.209Z,99683.72
2022-10-13T20:02:41.609Z,99687.41
2022-10-13T20:05:29.093Z,99690.03
2022-10-13T20:08:17.084Z,99680.81
2022-10-13T20:11:09.433Z,99683.97
2022-10-13T20:13:56.928Z,99687.38
2022-10-13T20:16:44.425Z,99680.28
2022-10-13T20:19:31.918Z,99689.72
2022-10-13T20:22:19.284Z,99687.56
2022-10-13T20:25:08.261Z,99694.66
2022-10-13T20:27:56.941Z,99682.56
2022-10-13T20:30:44.367Z,99684.69
2022-10-13T20:33:32.513Z,99688.38
2022-10-13T20:36:20.252Z,99686.00
2022-10-13T20:39:09.084Z,99700.16
2022-10-13T20:41:57.682Z,99698.28
2022-10-13T20:44:46.570Z,99703.03
2022-10-13T20:47:34.254Z,99703.28
2022-10-13T20:50:21.489Z,99682.28
2022-10-13T20:53:08.716Z,99683.34
2022-10-13T20:56:00.647Z,99679.38
2022-10-13T20:58:49.248Z,99684.34
2022-10-13T21:01:38.822Z,99682.28
2022-10-13T21:04:26.405Z,99687.53
2022-10-13T21:07:13.728Z,99689.91
2022-10-13T21:10:00.937Z,99689.09
2022-10-13T21:12:49.081Z,99692.78
2022-10-13T21:15:38.328Z,99687.53
2022-10-13T21:18:27.212Z,99680.16
2022-10-13T21:21:15.177Z,99675.97
2022-10-13T21:24:07.809Z,99680.41
2022-10-13T21:26:55.165Z,99681.22
2022-10-13T21:29:42.585Z,99682.78
2022-10-13T21:32:31.586Z,99683.84
2022-10-13T21:35:20.624Z,99680.41
2022-10-13T21:38:08.067Z,99684.34
2022-10-13T21:40:57.522Z,99683.56
2022-10-13T21:43:44.926Z,99680.16
2022-10-13T21:46:34.615Z,99686.44
2022-10-13T21:49:22.137Z,99687.47
2022-10-13T21:52:11.105Z,99689.06
2022-10-13T21:54:58.469Z,99690.66
2022-10-13T21:57:45.809Z,99686.19
2022-10-13T22:00:33.439Z,99688.81
2022-10-13T22:03:21.004Z,99683.81
2022-10-13T22:06:14.505Z,99687.47
2022-10-13T22:09:07.592Z,99685.91
2022-10-13T22:11:56.576Z,99700.06
2022-10-13T22:14:44.060Z,99691.16
2022-10-13T22:17:31.128Z,99690.38
2022-10-13T22:20:18.728Z,99683.81
2022-10-13T22:23:06.355Z,99697.47
2022-10-13T22:25:56.532Z,99694.03
2022-10-13T22:28:44.349Z,99689.84
2022-10-13T22:31:33.227Z,99688.81
2022-10-13T22:34:26.149Z,99690.91
2022-10-13T22:37:13.569Z,99687.47
2022-10-13T22:40:00.948Z,99689.06
2022-10-13T22:42:50.264Z,99686.19
2022-10-13T22:45:37.613Z,99681.72
2022-10-13T22:48:24.967Z,99680.16
2022-10-13T22:51:14.872Z,99676.72
2022-10-13T22:54:02.456Z,99670.16
2022-10-13T22:56:50.072Z,99669.09
2022-10-13T22:59:38.844Z,99680.88
2022-10-13T23:02:26.380Z,99681.38
2022-10-13T23:05:13.736Z,99678.25
2022-10-13T23:08:00.946Z,99678.50
2022-10-13T23:10:50.896Z,99683.19
2022-10-13T23:13:38.536Z,99682.44
2022-10-13T23:16:27.962Z,99671.13
2022-10-13T23:19:15.226Z,99669.56
2022-10-13T23:22:02.621Z,99681.34
2022-10-13T23:24:49.973Z,99675.31
2022-10-13T23:27:37.435Z,99670.34
2022-10-13T23:30:25.053Z,99677.41
2022-10-13T23:33:13.828Z,99674.00
2022-10-13T23:36:05.247Z,99675.56
2022-10-13T23:38:57.037Z,99680.81
2022-10-13T23:41:44.704Z,99686.59
2022-10-13T23:44:31.957Z,99680.31
2022-10-13T23:47:19.311Z,99679.25
2022-10-13T23:50:09.541Z,99684.00
2022-10-13T23:52:57.388Z,99685.56
2022-10-13T23:55:44.849Z,99684.81
2022-10-13T23:58:32.305Z,99679.81
